Time;durP1;ratioP1;P1;durP2;ratioP2;P2;SDS_P1;SDS_P2;PMS_P1;PMS_P2;Temp;Humidity;BMP_temperature;BMP_pressure;BME280_temperature;BME280_humidity;BME280_pressure;Samples;Min_cycle;Max_cycle;Signal;HPM_P1;HPM_P2
2023/10/19 00:02:31;;;;;;;8.35;4.85;;;12.50;99.90;;;;;;10044545;28;20091;-75
2023/10/19 00:07:21;;;;;;;8.98;4.40;;;12.60;99.90;;;;;;10066547;28;20037;-75
2023/10/19 00:12:12;;;;;;;9.48;6.07;;;12.60;99.90;;;;;;10062445;28;20120;-74
2023/10/19 00:17:10;;;;;;;6.32;4.05;;;12.60;99.90;;;;;;10068983;28;20398;-72
2023/10/19 00:22:08;;;;;;;6.60;4.03;;;12.60;99.90;;;;;;10062064;28;20029;-73
2023/10/19 00:27:05;;;;;;;9.20;5.20;;;12.70;99.90;;;;;;10061018;28;20112;-70
2023/10/19 00:31:58;;;;;;;7.07;5.03;;;12.60;99.90;;;;;;10060641;28;20051;-74
2023/10/19 00:36:51;;;;;;;8.10;4.25;;;12.60;99.90;;;;;;10061130;28;20029;-72
2023/10/19 00:41:42;;;;;;;5.95;3.72;;;12.60;99.90;;;;;;10041556;28;20159;-73
2023/10/19 00:46:42;;;;;;;8.02;4.00;;;12.60;99.90;;;;;;10061123;28;20377;-73
2023/10/19 00:52:02;;;;;;;6.65;4.22;;;12.70;99.90;;;;;;10060676;28;20034;-73
2023/10/19 00:56:56;;;;;;;7.47;4.18;;;12.70;99.90;;;;;;10060786;28;20507;-73
2023/10/19 01:01:48;;;;;;;9.02;4.78;;;12.80;99.90;;;;;;10060906;28;20025;-73
2023/10/19 01:06:38;;;;;;;7.95;4.57;;;12.70;99.90;;;;;;10053448;28;20032;-71
2023/10/19 01:11:29;;;;;;;6.95;4.45;;;12.70;99.90;;;;;;10059609;28;20029;-71
2023/10/19 01:16:22;;;;;;;7.47;4.68;;;12.80;99.90;;;;;;10063533;28;20041;-71
2023/10/19 01:21:14;;;;;;;8.75;5.00;;;12.70;99.90;;;;;;10061367;28;20049;-73
2023/10/19 01:26:08;;;;;;;7.30;4.32;;;12.70;99.90;;;;;;10057642;28;20025;-74
2023/10/19 01:31:00;;;;;;;6.97;4.30;;;12.70;99.90;;;;;;10058672;28;20129;-74
2023/10/19 01:36:11;;;;;;;10.73;4.93;;;12.80;99.90;;;;;;10056543;28;20067;-74
2023/10/19 01:41:13;;;;;;;7.65;4.97;;;12.80;99.90;;;;;;10038797;28;20021;-73
2023/10/19 01:46:05;;;;;;;4.53;3.53;;;12.80;99.90;;;;;;10048332;28;20083;-73
2023/10/19 01:50:55;;;;;;;7.75;4.82;;;12.80;99.90;;;;;;10059037;28;20044;-72
2023/10/19 01:55:47;;;;;;;7.93;4.60;;;12.90;99.90;;;;;;10058768;28;20037;-71
2023/10/19 02:00:39;;;;;;;7.43;4.10;;;12.90;99.90;;;;;;10055719;28;20408;-73
2023/10/19 02:05:39;;;;;;;9.35;6.35;;;12.90;99.90;;;;;;10058370;28;20390;-73
2023/10/19 02:10:32;;;;;;;7.70;4.65;;;12.90;99.90;;;;;;10058122;28;20033;-73
2023/10/19 02:15:23;;;;;;;9.98;4.53;;;13.00;99.90;;;;;;10057028;28;20037;-73
2023/10/19 02:20:17;;;;;;;6.30;4.22;;;13.00;99.90;;;;;;10064593;28;20072;-72
2023/10/19 02:25:10;;;;;;;7.78;4.07;;;13.10;99.90;;;;;;10040294;28;20048;-72
2023/10/19 02:30:02;;;;;;;9.10;5.47;;;13.10;99.90;;;;;;10055779;28;20049;-71
2023/10/19 02:34:52;;;;;;;7.43;4.18;;;13.00;99.90;;;;;;10056737;28;20033;-72
2023/10/19 02:39:43;;;;;;;8.73;4.80;;;13.00;99.90;;;;;;10024253;28;20037;-72
2023/10/19 02:44:34;;;;;;;5.35;4.07;;;13.00;99.90;;;;;;10043197;28;20017;-73
2023/10/19 02:49:26;;;;;;;7.45;4.93;;;13.00;99.90;;;;;;10052793;28;20092;-71
2023/10/19 02:54:24;;;;;;;7.15;4.57;;;13.00;99.90;;;;;;10055690;28;20041;-72
2023/10/19 02:59:22;;;;;;;7.38;4.70;;;13.10;99.90;;;;;;10059965;28;20092;-72
2023/10/19 03:04:13;;;;;;;7.78;4.47;;;13.00;99.90;;;;;;10053701;28;20060;-73
2023/10/19 03:09:15;;;;;;;5.40;3.80;;;13.00;99.90;;;;;;10050982;28;20100;-72
2023/10/19 03:14:06;;;;;;;7.22;4.53;;;13.00;99.90;;;;;;10052857;28;20065;-72
2023/10/19 03:18:56;;;;;;;6.85;5.00;;;13.00;99.90;;;;;;10061270;28;20483;-71
2023/10/19 03:23:47;;;;;;;9.30;4.75;;;13.00;99.90;;;;;;10059626;28;20029;-69
2023/10/19 03:28:38;;;;;;;8.65;4.55;;;13.00;99.90;;;;;;10056096;28;20034;-70
2023/10/19 03:33:28;;;;;;;8.75;5.05;;;13.00;99.90;;;;;;10055761;28;20103;-71
2023/10/19 03:38:22;;;;;;;6.32;4.28;;;13.00;99.90;;;;;;10047562;28;20087;-73
2023/10/19 03:43:21;;;;;;;6.60;4.75;;;13.00;99.90;;;;;;10038679;28;20045;-71
2023/10/19 03:48:12;;;;;;;7.50;4.95;;;13.00;99.90;;;;;;10055294;28;20022;-72
2023/10/19 03:53:04;;;;;;;7.28;5.28;;;13.00;99.90;;;;;;10055492;28;20034;-72
2023/10/19 03:57:55;;;;;;;6.45;4.13;;;12.90;99.90;;;;;;10056067;28;20013;-73
2023/10/19 04:02:46;;;;;;;8.55;4.63;;;13.00;99.90;;;;;;10056283;28;20041;-71
2023/10/19 04:07:37;;;;;;;8.27;4.65;;;13.00;99.90;;;;;;10053635;28;20056;-70
2023/10/19 04:12:28;;;;;;;7.00;4.05;;;13.00;99.90;;;;;;10054637;28;20037;-73
2023/10/19 04:17:20;;;;;;;8.65;4.70;;;13.00;99.90;;;;;;10063263;28;20052;-73
2023/10/19 04:22:21;;;;;;;9.48;4.25;;;13.10;99.90;;;;;;10058184;28;20032;-72
2023/10/19 04:27:12;;;;;;;5.85;4.45;;;13.10;99.90;;;;;;10054891;28;20040;-73
2023/10/19 04:32:06;;;;;;;6.85;4.47;;;13.10;99.90;;;;;;10049917;28;20112;-72
2023/10/19 04:36:57;;;;;;;7.38;4.45;;;13.10;99.90;;;;;;10055152;28;20045;-72
2023/10/19 04:41:50;;;;;;;9.05;4.53;;;13.10;99.90;;;;;;10060262;28;20025;-72
2023/10/19 04:46:42;;;;;;;6.85;4.15;;;13.10;99.90;;;;;;10062978;28;20059;-72
2023/10/19 04:51:34;;;;;;;8.38;4.78;;;13.10;99.90;;;;;;10062198;28;20040;-74
2023/10/19 04:56:25;;;;;;;8.85;4.85;;;13.00;99.90;;;;;;10061106;28;20037;-72
2023/10/19 05:01:15;;;;;;;10.93;5.05;;;13.00;99.90;;;;;;10059804;28;20045;-74
2023/10/19 05:06:06;;;;;;;8.40;4.75;;;13.00;99.90;;;;;;10060521;28;20045;-74
2023/10/19 05:10:59;;;;;;;9.45;5.18;;;13.00;99.90;;;;;;10063857;28;20028;-71
2023/10/19 05:15:49;;;;;;;9.35;5.53;;;13.00;99.90;;;;;;10063483;28;20513;-74
2023/10/19 05:20:43;;;;;;;8.60;5.20;;;13.00;99.90;;;;;;10064535;28;20068;-75
2023/10/19 05:25:36;;;;;;;7.90;4.57;;;13.10;99.90;;;;;;10052569;28;20367;-75
2023/10/19 05:30:27;;;;;;;10.80;5.20;;;13.10;99.90;;;;;;10058364;28;20140;-72
2023/10/19 05:35:26;;;;;;;6.80;4.47;;;13.10;99.90;;;;;;10050993;28;20136;-74
2023/10/19 05:40:18;;;;;;;7.13;4.68;;;13.00;99.90;;;;;;10052414;28;20120;-73
2023/10/19 05:45:08;;;;;;;7.47;4.90;;;13.00;99.90;;;;;;10041830;28;20112;-72
2023/10/19 05:49:59;;;;;;;8.30;4.72;;;13.10;99.90;;;;;;10060782;28;20525;-75
2023/10/19 05:54:50;;;;;;;7.70;4.45;;;13.10;99.90;;;;;;10059068;28;20064;-74
2023/10/19 05:59:43;;;;;;;8.05;5.30;;;13.10;99.90;;;;;;10056252;28;20033;-75
2023/10/19 06:04:34;;;;;;;9.65;4.65;;;13.10;99.90;;;;;;10058132;28;20033;-72
2023/10/19 06:09:31;;;;;;;7.63;4.65;;;13.10;99.90;;;;;;10040193;28;20033;-75
2023/10/19 06:14:21;;;;;;;8.35;4.88;;;13.20;99.90;;;;;;10052221;28;20586;-74
2023/10/19 06:19:12;;;;;;;7.18;4.05;;;13.10;99.90;;;;;;10060129;28;20148;-73
2023/10/19 06:24:03;;;;;;;7.93;4.78;;;13.20;99.90;;;;;;10057559;28;20513;-74
2023/10/19 06:28:58;;;;;;;7.88;5.20;;;13.10;99.90;;;;;;10056408;28;20033;-75
2023/10/19 06:33:48;;;;;;;11.63;5.68;;;13.20;99.90;;;;;;10045854;28;20041;-74
2023/10/19 06:38:39;;;;;;;8.48;5.10;;;13.10;99.90;;;;;;10045741;28;20422;-74
2023/10/19 06:43:30;;;;;;;7.20;4.72;;;13.20;99.90;;;;;;10055770;28;20030;-75
2023/10/19 06:48:21;;;;;;;7.38;4.63;;;13.30;99.90;;;;;;10049875;28;20499;-75
2023/10/19 06:53:11;;;;;;;8.05;4.88;;;13.30;99.90;;;;;;10051858;28;20080;-78
2023/10/19 06:58:02;;;;;;;9.35;4.53;;;13.30;99.90;;;;;;10053467;28;20255;-80
2023/10/19 07:02:55;;;;;;;7.85;4.85;;;13.30;99.90;;;;;;10048977;28;20028;-76
2023/10/19 07:07:46;;;;;;;7.85;4.63;;;13.40;99.90;;;;;;10047348;28;20025;-77
2023/10/19 07:12:37;;;;;;;6.53;4.35;;;13.40;99.90;;;;;;10031173;28;21006;-76
2023/10/19 07:17:27;;;;;;;10.90;6.25;;;13.40;99.90;;;;;;10020564;28;20030;-79
2023/10/19 07:22:22;;;;;;;8.43;4.55;;;13.40;99.90;;;;;;10020322;28;20395;-78
2023/10/19 07:27:18;;;;;;;8.07;5.22;;;13.40;99.90;;;;;;10036632;28;20112;-75
2023/10/19 07:32:11;;;;;;;;;;;13.40;99.90;;;;;;10042821;28;20056;-75
2023/10/19 07:37:03;;;;;;;7.85;4.88;;;13.40;99.90;;;;;;10055685;28;19928;-78
2023/10/19 07:41:54;;;;;;;7.32;4.93;;;13.40;99.90;;;;;;10033521;28;20041;-75
2023/10/19 07:46:44;;;;;;;6.60;4.75;;;13.50;99.90;;;;;;10056328;28;20037;-75
2023/10/19 07:51:35;;;;;;;6.53;3.95;;;13.50;99.90;;;;;;10048995;28;20044;-69
2023/10/19 07:56:29;;;;;;;5.63;4.57;;;13.60;99.90;;;;;;10038208;28;20517;-72
2023/10/19 08:01:19;;;;;;;8.85;4.82;;;13.60;99.90;;;;;;10053553;28;20033;-73
2023/10/19 08:06:10;;;;;;;7.22;4.38;;;13.60;99.90;;;;;;10050856;28;20414;-70
2023/10/19 08:11:01;;;;;;;7.13;4.43;;;13.70;99.90;;;;;;10048023;28;20032;-79
2023/10/19 08:15:52;;;;;;;6.50;4.68;;;13.70;99.90;;;;;;10055150;28;20041;-78
2023/10/19 08:20:45;;;;;;;9.57;4.10;;;13.80;99.90;;;;;;10058097;28;20026;-82
2023/10/19 08:25:36;;;;;;;7.35;4.45;;;13.90;99.90;;;;;;10036235;28;20068;-77
2023/10/19 08:30:28;;;;;;;7.05;3.72;;;13.90;99.90;;;;;;10062093;28;20060;-77
2023/10/19 08:35:24;;;;;;;8.80;4.03;;;14.00;99.90;;;;;;10045003;28;20585;-78
2023/10/19 08:40:15;;;;;;;;;;;14.10;99.90;;;;;;10042277;28;20038;-78
2023/10/19 08:45:08;;;;;;;6.43;3.88;;;14.10;99.90;;;;;;10029445;28;19956;-77
2023/10/19 08:49:59;;;;;;;5.70;4.15;;;14.20;99.90;;;;;;10043736;28;20025;-71
2023/10/19 08:54:49;;;;;;;6.70;4.15;;;14.30;99.90;;;;;;10040779;28;20055;-69
2023/10/19 08:59:40;;;;;;;6.30;4.15;;;14.30;99.90;;;;;;10056369;28;20067;-71
2023/10/19 09:04:31;;;;;;;8.63;4.53;;;14.30;99.90;;;;;;10043072;28;20037;-70
2023/10/19 09:09:25;;;;;;;10.90;5.22;;;14.40;99.90;;;;;;10041285;28;20368;-73
2023/10/19 09:14:30;;;;;;;5.25;3.30;;;14.40;99.90;;;;;;10060681;28;20115;-70
2023/10/19 09:19:20;;;;;;;5.55;3.30;;;14.50;99.90;;;;;;10053761;28;20084;-71
2023/10/19 09:24:11;;;;;;;7.20;3.95;;;14.60;99.90;;;;;;10060027;28;20403;-71
2023/10/19 09:29:01;;;;;;;4.47;3.50;;;14.60;99.90;;;;;;10059157;28;20029;-71
2023/10/19 09:33:54;;;;;;;6.32;3.92;;;14.60;99.90;;;;;;10052869;28;20030;-73
2023/10/19 09:38:48;;;;;;;7.82;4.00;;;14.60;99.90;;;;;;10041864;28;20040;-72
2023/10/19 09:43:46;;;;;;;5.78;3.25;;;14.60;99.90;;;;;;10058936;28;20038;-73
2023/10/19 09:48:50;;;;;;;5.45;3.75;;;14.60;99.90;;;;;;10037234;28;20502;-76
2023/10/19 09:53:44;;;;;;;7.20;4.50;;;14.60;99.90;;;;;;10058766;28;20507;-73
2023/10/19 09:58:43;;;;;;;8.52;3.90;;;14.50;99.90;;;;;;10043466;28;20018;-75
2023/10/19 10:03:51;;;;;;;5.65;4.35;;;14.50;99.90;;;;;;10058742;28;20033;-77
2023/10/19 10:08:45;;;;;;;7.18;4.30;;;14.50;99.90;;;;;;10058377;28;20033;-80
2023/10/19 10:13:44;;;;;;;6.65;3.95;;;14.50;99.90;;;;;;10054646;28;20045;-73
2023/10/19 10:18:35;;;;;;;11.18;4.45;;;14.40;99.90;;;;;;10037692;28;20033;-75
2023/10/19 10:23:32;;;;;;;6.07;4.15;;;14.50;99.90;;;;;;10054625;28;20499;-76
2023/10/19 10:28:23;;;;;;;8.10;3.80;;;14.40;99.90;;;;;;10056509;28;20498;-75
2023/10/19 10:33:51;;;;;;;7.93;3.70;;;14.50;99.90;;;;;;10050749;28;20099;-75
2023/10/19 10:38:42;;;;;;;6.50;4.68;;;14.60;99.90;;;;;;10050028;28;20036;-75
2023/10/19 10:43:32;;;;;;;7.80;5.00;;;14.60;99.90;;;;;;10050798;28;20037;-74
2023/10/19 10:48:23;;;;;;;6.53;4.20;;;14.60;99.90;;;;;;10046661;28;20030;-77
2023/10/19 10:53:17;;;;;;;6.65;3.75;;;14.70;99.90;;;;;;10047384;28;20021;-77
2023/10/19 10:58:08;;;;;;;7.65;3.85;;;14.70;99.90;;;;;;10043842;28;20522;-72
2023/10/19 11:03:04;;;;;;;6.00;3.53;;;14.70;99.90;;;;;;10048295;28;20044;-76
2023/10/19 11:08:21;;;;;;;11.50;4.90;;;14.80;99.90;;;;;;10034921;28;20128;-77
2023/10/19 11:13:14;;;;;;;11.98;4.97;;;14.90;99.90;;;;;;10039600;28;20045;-78
2023/10/19 11:18:07;;;;;;;7.43;4.10;;;14.90;99.90;;;;;;10034049;28;20026;-83
2023/10/19 11:23:00;;;;;;;8.82;5.45;;;14.90;99.90;;;;;;10052224;28;20048;-79
2023/10/19 11:27:52;;;;;;;7.63;4.88;;;15.00;99.90;;;;;;10049533;28;20389;-81
2023/10/19 11:32:44;;;;;;;6.80;4.28;;;15.00;99.90;;;;;;10037365;28;20045;-77
2023/10/19 11:37:52;;;;;;;7.93;4.35;;;15.00;99.90;;;;;;10050207;28;20029;-77
2023/10/19 11:42:43;;;;;;;7.82;4.40;;;15.10;99.90;;;;;;10049676;28;20498;-72
2023/10/19 11:47:34;;;;;;;5.53;4.40;;;15.10;99.90;;;;;;10050054;28;20030;-76
2023/10/19 11:52:25;;;;;;;6.45;3.92;;;15.20;99.90;;;;;;10055018;28;20034;-74
2023/10/19 11:57:15;;;;;;;8.90;4.22;;;15.20;99.90;;;;;;10060239;28;20036;-79
2023/10/19 12:02:06;;;;;;;10.60;4.75;;;15.20;99.90;;;;;;10059887;28;20033;-79
2023/10/19 12:06:57;;;;;;;6.03;3.45;;;15.20;99.90;;;;;;10062825;28;20029;-75
2023/10/19 12:11:47;;;;;;;8.38;5.25;;;15.30;99.90;;;;;;10062015;28;20029;-77
2023/10/19 12:16:41;;;;;;;5.90;3.35;;;15.30;99.90;;;;;;10046268;28;20038;-74
2023/10/19 12:21:33;;;;;;;5.22;3.50;;;15.40;99.90;;;;;;10054865;28;20053;-73
2023/10/19 12:26:24;;;;;;;4.35;3.30;;;15.40;99.90;;;;;;10042250;28;20026;-75
2023/10/19 12:31:18;;;;;;;8.18;3.53;;;15.40;99.90;;;;;;10054854;28;20038;-76
2023/10/19 12:41:19;;;;;;;6.85;3.35;;;15.30;99.90;;;;;;10058599;28;20021;-76
2023/10/19 12:46:11;;;;;;;4.82;3.28;;;15.30;99.90;;;;;;10059113;28;20480;-73
2023/10/19 12:51:04;;;;;;;9.60;4.18;;;15.30;99.90;;;;;;10060457;28;20945;-71
2023/10/19 12:55:58;;;;;;;6.43;3.53;;;15.40;99.90;;;;;;10058411;28;20545;-74
2023/10/19 13:00:48;;;;;;;7.75;3.72;;;15.40;99.90;;;;;;10057994;28;20108;-74
2023/10/19 13:05:40;;;;;;;6.15;4.53;;;15.40;99.90;;;;;;10059197;28;20108;-82
2023/10/19 13:10:33;;;;;;;7.53;4.30;;;15.30;99.90;;;;;;10061809;28;20494;-71
2023/10/19 13:15:28;;;;;;;7.72;4.38;;;15.30;99.90;;;;;;10058446;28;20033;-70
2023/10/19 13:20:19;;;;;;;6.13;3.80;;;15.30;99.90;;;;;;10061399;28;20168;-74
2023/10/19 13:25:12;;;;;;;7.10;4.28;;;15.30;99.90;;;;;;10058277;28;20431;-71
2023/10/19 13:30:03;;;;;;;5.75;3.95;;;15.40;99.90;;;;;;10060063;28;20045;-72
2023/10/19 13:34:54;;;;;;;6.13;3.75;;;15.40;99.90;;;;;;10058734;28;20044;-74
2023/10/19 13:39:45;;;;;;;5.38;3.33;;;15.50;99.90;;;;;;10059069;28;20029;-73
2023/10/19 13:44:36;;;;;;;4.70;4.10;;;15.50;99.90;;;;;;10051840;28;20059;-71
2023/10/19 13:49:26;;;;;;;8.93;5.35;;;15.60;99.90;;;;;;10058275;28;20374;-71
2023/10/19 13:54:17;;;;;;;9.40;5.07;;;15.70;99.90;;;;;;10057898;28;20112;-71
2023/10/19 13:59:09;;;;;;;9.57;5.63;;;15.60;99.90;;;;;;10062679;28;20407;-70
2023/10/19 14:03:59;;;;;;;6.20;3.92;;;15.70;99.90;;;;;;10041036;28;20029;-70
2023/10/19 14:08:50;;;;;;;7.78;4.03;;;15.70;99.90;;;;;;10055622;28;20554;-73
2023/10/19 14:13:42;;;;;;;6.55;4.25;;;15.70;99.90;;;;;;10057745;28;20037;-71
2023/10/19 14:18:33;;;;;;;10.02;5.15;;;15.70;99.90;;;;;;10055738;28;20385;-71
2023/10/19 14:23:24;;;;;;;8.95;4.60;;;15.70;99.90;;;;;;10030171;28;20022;-71
2023/10/19 14:28:16;;;;;;;5.57;3.63;;;15.70;99.90;;;;;;10047840;28;20049;-71
2023/10/19 14:33:10;;;;;;;11.05;4.63;;;15.70;99.90;;;;;;10053728;28;20049;-70
2023/10/19 14:38:03;;;;;;;6.82;3.90;;;15.70;99.90;;;;;;10056689;28;20675;-71
2023/10/19 14:42:55;;;;;;;9.02;4.03;;;15.70;99.90;;;;;;10060714;28;20029;-72
2023/10/19 14:47:51;;;;;;;8.73;4.28;;;15.80;99.90;;;;;;10056036;28;20029;-71
2023/10/19 14:52:42;;;;;;;7.57;4.20;;;15.80;99.90;;;;;;10038374;28;20116;-70
2023/10/19 14:57:33;;;;;;;6.20;3.08;;;15.80;99.90;;;;;;10056827;28;20139;-69
2023/10/19 15:02:24;;;;;;;6.13;3.72;;;15.80;99.90;;;;;;10056640;28;20032;-73
2023/10/19 15:07:15;;;;;;;4.57;3.25;;;15.80;99.90;;;;;;10052965;28;20082;-70
2023/10/19 15:12:06;;;;;;;4.97;2.67;;;15.80;99.90;;;;;;10055146;28;20468;-71
2023/10/19 15:16:57;;;;;;;4.10;3.03;;;15.80;99.90;;;;;;10062524;28;20446;-73
2023/10/19 15:21:48;;;;;;;5.47;4.07;;;15.80;99.90;;;;;;10055210;28;20033;-72
2023/10/19 15:26:39;;;;;;;5.70;3.50;;;15.80;99.90;;;;;;10054941;28;20041;-71
2023/10/19 15:31:29;;;;;;;5.05;2.90;;;15.80;99.90;;;;;;10036100;28;20144;-74
2023/10/19 15:36:21;;;;;;;5.15;3.15;;;15.80;99.90;;;;;;10047432;28;20804;-73
2023/10/19 15:41:12;;;;;;;5.72;3.70;;;15.90;99.90;;;;;;10034755;28;20037;-73
2023/10/19 15:46:02;;;;;;;12.02;5.10;;;15.90;99.90;;;;;;10035778;28;20029;-73
2023/10/19 15:50:57;;;;;;;9.25;5.00;;;15.80;99.90;;;;;;10031705;28;20332;-70
2023/10/19 15:55:48;;;;;;;8.55;3.55;;;15.90;99.90;;;;;;10056113;28;20038;-71
2023/10/19 16:00:38;;;;;;;3.72;2.60;;;15.90;99.90;;;;;;10055331;28;20037;-70
2023/10/19 16:05:29;;;;;;;5.85;3.35;;;15.90;99.90;;;;;;10051170;28;20041;-70
2023/10/19 16:10:20;;;;;;;5.32;3.35;;;15.90;99.90;;;;;;10054051;28;20475;-72
2023/10/19 16:15:12;;;;;;;6.40;4.25;;;15.90;99.90;;;;;;10037210;28;20384;-70
2023/10/19 16:20:03;;;;;;;5.82;3.30;;;15.90;99.90;;;;;;10059909;28;20075;-71
2023/10/19 16:24:54;;;;;;;5.70;3.30;;;16.00;99.90;;;;;;10036869;28;20394;-70
2023/10/19 16:29:44;;;;;;;5.53;3.45;;;16.00;99.90;;;;;;10050188;28;20785;-71
2023/10/19 16:34:35;;;;;;;5.82;4.40;;;16.00;99.90;;;;;;10052656;28;20041;-71
2023/10/19 16:39:27;;;;;;;6.72;4.13;;;16.00;99.90;;;;;;10052860;28;20041;-70
2023/10/19 16:44:18;;;;;;;5.13;4.18;;;16.10;99.90;;;;;;10061454;28;20033;-72
2023/10/19 16:49:09;;;;;;;5.15;3.90;;;16.00;99.90;;;;;;10062128;28;20080;-72
2023/10/19 16:53:59;;;;;;;5.35;3.55;;;16.00;99.90;;;;;;10060889;28;20041;-72
2023/10/19 16:58:50;;;;;;;4.45;4.00;;;16.00;99.90;;;;;;10043619;28;20022;-70
2023/10/19 17:03:41;;;;;;;6.35;3.90;;;16.10;99.90;;;;;;10060962;28;20440;-71
2023/10/19 17:08:31;;;;;;;6.82;3.60;;;16.00;99.90;;;;;;10052962;28;20025;-70
2023/10/19 17:13:22;;;;;;;4.55;3.17;;;16.10;99.90;;;;;;10055997;28;20068;-70
2023/10/19 17:18:12;;;;;;;4.50;3.15;;;16.10;99.90;;;;;;10060291;28;20042;-71
2023/10/19 17:23:03;;;;;;;5.20;4.25;;;16.10;99.90;;;;;;10054349;28;20034;-72
2023/10/19 17:27:55;;;;;;;5.95;3.17;;;16.10;99.90;;;;;;10052925;28;20034;-71
2023/10/19 17:32:46;;;;;;;4.88;3.35;;;16.10;99.90;;;;;;10048795;28;20045;-72
2023/10/19 17:37:37;;;;;;;4.72;3.45;;;16.10;99.90;;;;;;10036918;28;20400;-71
2023/10/19 17:42:28;;;;;;;5.55;3.72;;;16.10;99.90;;;;;;10058693;28;20029;-73
2023/10/19 17:47:19;;;;;;;6.05;2.88;;;16.10;99.90;;;;;;10041613;28;20026;-71
2023/10/19 17:52:10;;;;;;;4.70;3.45;;;16.10;99.90;;;;;;10055595;28;20487;-75
2023/10/19 17:57:01;;;;;;;6.25;3.80;;;16.10;99.90;;;;;;10053896;28;20470;-70
2023/10/19 18:01:52;;;;;;;6.57;4.07;;;16.20;99.90;;;;;;10058534;28;20052;-74
2023/10/19 18:06:43;;;;;;;9.18;5.72;;;16.10;99.90;;;;;;10059092;28;20550;-75
2023/10/19 18:11:34;;;;;;;7.00;3.88;;;16.10;99.90;;;;;;10059361;28;20083;-75
2023/10/19 18:16:25;;;;;;;6.70;3.90;;;16.10;99.90;;;;;;10064323;28;20033;-73
2023/10/19 18:21:16;;;;;;;5.70;3.63;;;16.00;99.90;;;;;;10057847;28;20471;-70
2023/10/19 18:26:06;;;;;;;6.22;4.18;;;16.10;99.90;;;;;;10058093;28;20056;-70
2023/10/19 18:30:57;;;;;;;5.30;3.65;;;16.10;99.90;;;;;;10051407;28;20218;-70
2023/10/19 18:35:49;;;;;;;5.60;3.90;;;16.10;99.90;;;;;;10045393;28;20065;-69
2023/10/19 18:40:40;;;;;;;6.13;3.72;;;16.20;99.90;;;;;;10048446;28;20044;-70
2023/10/19 18:45:32;;;;;;;6.57;4.20;;;16.20;99.90;;;;;;10052839;28;20026;-69
2023/10/19 18:50:23;;;;;;;5.97;3.63;;;16.20;99.90;;;;;;10054012;28;20608;-70
2023/10/19 18:55:17;;;;;;;4.50;2.92;;;16.20;99.90;;;;;;10054236;28;20041;-71
2023/10/19 19:00:08;;;;;;;5.65;3.38;;;16.20;99.90;;;;;;10055916;28;20021;-70
2023/10/19 19:04:59;;;;;;;6.18;3.05;;;16.20;99.90;;;;;;10055987;28;20102;-71
2023/10/19 19:09:50;;;;;;;4.50;3.60;;;16.20;99.90;;;;;;10056370;28;20033;-70
2023/10/19 19:14:40;;;;;;;5.75;3.83;;;16.20;99.90;;;;;;10056347;28;20034;-70
2023/10/19 19:19:32;;;;;;;6.43;3.25;;;16.20;99.90;;;;;;10056648;28;20026;-70
2023/10/19 19:24:23;;;;;;;5.38;3.42;;;16.20;99.90;;;;;;10055990;28;20068;-70
2023/10/19 19:29:15;;;;;;;8.02;3.88;;;16.20;99.90;;;;;;10053866;28;20060;-71
2023/10/19 19:34:06;;;;;;;4.00;2.90;;;16.20;99.90;;;;;;10050570;28;20514;-71
2023/10/19 19:38:57;;;;;;;7.43;3.30;;;16.20;99.90;;;;;;10046834;28;20021;-71
2023/10/19 19:43:48;;;;;;;6.72;3.95;;;16.20;99.90;;;;;;10037957;28;20061;-71
2023/10/19 19:48:39;;;;;;;5.82;3.85;;;16.20;99.90;;;;;;10055404;28;20030;-69
2023/10/19 19:53:30;;;;;;;6.80;4.75;;;16.20;99.90;;;;;;10038748;28;20062;-70
2023/10/19 19:58:21;;;;;;;7.10;3.65;;;16.20;99.90;;;;;;10026249;28;20029;-71
2023/10/19 20:03:12;;;;;;;9.02;4.00;;;16.20;99.90;;;;;;10051108;28;20032;-70
2023/10/19 20:08:04;;;;;;;6.75;4.50;;;16.20;99.90;;;;;;10054218;28;20023;-70
2023/10/19 20:12:56;;;;;;;5.88;4.20;;;16.20;99.90;;;;;;10040216;28;20033;-69
2023/10/19 20:17:47;;;;;;;5.43;4.18;;;16.10;99.90;;;;;;10058586;28;20477;-71
2023/10/19 20:22:40;;;;;;;7.75;4.28;;;16.20;99.90;;;;;;10059703;28;20056;-73
2023/10/19 20:27:32;;;;;;;9.50;4.95;;;16.10;99.90;;;;;;10057814;28;20542;-73
2023/10/19 20:32:23;;;;;;;6.80;4.63;;;16.20;99.90;;;;;;10053640;28;20561;-71
2023/10/19 20:37:14;;;;;;;7.40;4.07;;;16.20;99.90;;;;;;10046255;28;20045;-70
2023/10/19 20:42:05;;;;;;;6.28;4.18;;;16.10;99.90;;;;;;10053080;28;20028;-72
2023/10/19 20:46:57;;;;;;;6.20;4.30;;;16.20;99.90;;;;;;10052652;28;20041;-73
2023/10/19 20:51:48;;;;;;;7.20;4.80;;;16.20;99.90;;;;;;10057919;28;20017;-72
2023/10/19 20:56:39;;;;;;;6.97;4.65;;;16.20;99.90;;;;;;10057726;28;20041;-72
2023/10/19 21:01:30;;;;;;;6.38;3.75;;;16.20;99.90;;;;;;10042143;28;20535;-72
2023/10/19 21:06:21;;;;;;;6.68;4.60;;;16.20;99.90;;;;;;10059538;28;20124;-72
2023/10/19 21:11:21;;;;;;;6.38;4.25;;;16.20;99.90;;;;;;10042231;28;20044;-71
2023/10/19 21:16:14;;;;;;;4.57;3.90;;;16.20;99.90;;;;;;10065756;28;20473;-71
2023/10/19 21:21:07;;;;;;;8.48;4.60;;;16.10;99.90;;;;;;10041485;28;20029;-72
2023/10/19 21:25:58;;;;;;;6.10;4.05;;;16.10;99.90;;;;;;10058894;28;20433;-71
2023/10/19 21:30:49;;;;;;;6.18;4.50;;;16.10;99.90;;;;;;10058138;28;20087;-71
2023/10/19 21:35:40;;;;;;;7.93;3.88;;;16.10;99.90;;;;;;10060571;28;20041;-71
2023/10/19 21:40:31;;;;;;;6.60;4.15;;;16.10;99.90;;;;;;10059714;28;20040;-71
2023/10/19 21:45:22;;;;;;;5.97;4.18;;;16.10;99.90;;;;;;10056708;28;20032;-74
2023/10/19 21:50:13;;;;;;;6.35;4.22;;;16.20;99.90;;;;;;10041099;28;20508;-71
2023/10/19 21:55:04;;;;;;;5.32;4.05;;;16.10;99.90;;;;;;10054269;28;20044;-71
2023/10/19 21:59:55;;;;;;;7.72;5.00;;;16.20;99.90;;;;;;10058668;28;20075;-71
2023/10/19 22:04:45;;;;;;;10.43;5.60;;;16.20;99.90;;;;;;10057499;28;20472;-71
2023/10/19 22:09:36;;;;;;;8.32;5.22;;;16.20;99.90;;;;;;10050609;28;20734;-71
2023/10/19 22:14:30;;;;;;;6.90;4.88;;;16.10;99.90;;;;;;10034641;28;20030;-71
2023/10/19 22:19:27;;;;;;;10.73;5.50;;;16.10;99.90;;;;;;10053895;28;20116;-68
2023/10/19 22:24:19;;;;;;;8.43;5.25;;;16.20;99.90;;;;;;10055479;28;20041;-72
2023/10/19 22:29:09;;;;;;;8.68;5.75;;;16.10;99.90;;;;;;10035568;28;20053;-71
2023/10/19 22:34:00;;;;;;;8.75;6.03;;;16.20;99.90;;;;;;10039739;28;20047;-71
2023/10/19 22:38:51;;;;;;;8.32;4.75;;;16.20;99.90;;;;;;10056323;28;20029;-73
2023/10/19 22:43:44;;;;;;;8.13;5.28;;;16.20;99.90;;;;;;10056913;28;20770;-71
2023/10/19 22:48:34;;;;;;;8.90;5.63;;;16.20;99.90;;;;;;10057374;28;20025;-71
2023/10/19 22:53:26;;;;;;;9.00;5.25;;;16.20;99.90;;;;;;10056407;28;20095;-71
2023/10/19 22:58:17;;;;;;;7.97;5.47;;;16.20;99.90;;;;;;10052871;28;20121;-71
2023/10/19 23:03:09;;;;;;;8.07;5.88;;;16.20;99.90;;;;;;10056378;28;20120;-70
2023/10/19 23:08:00;;;;;;;10.27;5.43;;;16.20;99.90;;;;;;10049357;28;20029;-71
2023/10/19 23:12:53;;;;;;;8.45;5.35;;;16.20;99.90;;;;;;10038080;28;20057;-72
2023/10/19 23:17:48;;;;;;;10.25;5.57;;;16.20;99.90;;;;;;10050577;28;20030;-69
2023/10/19 23:22:39;;;;;;;;;;;16.20;99.90;;;;;;10041047;28;20102;-72
2023/10/19 23:27:31;;;;;;;9.57;4.93;;;16.20;99.90;;;;;;10038284;28;20059;-72
2023/10/19 23:32:22;;;;;;;7.32;4.95;;;16.20;99.90;;;;;;10046798;28;20073;-71
2023/10/19 23:37:14;;;;;;;8.23;5.63;;;16.20;99.90;;;;;;10053837;28;20055;-72
2023/10/19 23:42:05;;;;;;;10.02;5.40;;;16.20;99.90;;;;;;10052849;28;20030;-72
2023/10/19 23:46:57;;;;;;;7.15;5.35;;;16.20;99.90;;;;;;10062587;28;20100;-71
2023/10/19 23:51:48;;;;;;;7.70;5.10;;;16.20;99.90;;;;;;10060403;28;20087;-71
2023/10/19 23:56:38;;;;;;;9.45;5.45;;;16.20;99.90;;;;;;10060603;28;20126;-72
